Albuquerque (ABQ/KABQ)

Map

Information

Location
Albuquerque, NM
Local Time
17:26 / 5:26 pm
GMT Time
00:26 / 12:26 am
Gates
Unassigned
No FAA reported delays
METAR KABQ 222352Z 00000KT 10SM FEW050 SCT110 BKN180 BKN250 06/M07 A3011 RMK AO2 SLP193 T00561067 10067 20022 53005
TAF KABQ 222344Z 2300/2324 VRB04KT P6SM BKN100 FM230300 15005KT P6SM OVC060 FM231200 18010KT P6SM BKN100 FM232100 21018G28KT P6SM OVC100
  • No charts available